Lourenco, Brazil
Current Conditions -  °F | °C
As of 3:00 PM on Saturday 20 Dec 2014 (Local Time) from SOCA Reporting Station
Clear Clear  
Wind Chill: 88°   Ceiling: Unl
Heat Index: 94°   Visibility: 6mi
Dew Point: 72°   Wind: 13mph
Humidity: 58%   Direction: 60°ENE
Pressure: 29.83"   Gusts: NA
Location:  2.5°N, 52°W
Report Text: SOCA 201800Z AUTO 06011KT 9999 NCD 31/22 Q1010
Loading
Personal Weather Stations






























Interactive Weather Map New forecast layout! Learn more

10-Day Weather Forecast

Advertisements
Track Severe Weather on mobile